San Jose Tobias Bolanos, Costa Rica

5:35 PM CST on July 27, 2016 (GMT -0600)
Carretera John F Kennedy | | Change Station

Elev 3395 ft 9.93 °N, 84.15 °W | Updated 3 minutes ago

Mostly Cloudy
Mostly Cloudy
84.0 °F
Feels Like 87 °F
N
3.7
Wind Variable Wind from ENE
Gusts 8.1 mph

Today
High -- | Low -- °F
--% Chance of Precip.
Yesterday
High -- | Low -- °F
Precip. -- in
Pressure 29.95 in
Visibility 6.2 miles
Clouds Few 3500 ft
Mostly Cloudy 20000 ft
Heat Index 87 °F
Dew Point 68 °F
Humidity 57%
Rainfall 0.00 in
Snow Depth Not available.
5:25 AM 6:00 PM
Last Quarter, 38% visible
METAR MRPV 272300Z 07013KT 9999 FEW035 BKN200 24/16 A2995 NOSIG
Pressure 29.95 in
Visibility 6.2 miles
Clouds Few 3500 ft
Mostly Cloudy 20000 ft
Heat Index 87 °F
Dew Point 68 °F
Humidity 57%
Rainfall 0.00 in
Snow Depth Not available.
5:25 AM 6:00 PM
Last Quarter, 38% visible
METAR MRPV 272300Z 07013KT 9999 FEW035 BKN200 24/16 A2995 NOSIG

10-Day Weather Forecast

No radar image for this location.
×

Almanac

Astronomy

Jul. 27, 2016 Rise Set
Actual Time
Civil Twilight
Nautical Twilight
Astronomical Twilight
Moon
Length of Visible Light
Length of Day
Tomorrow will be .
, % of the Moon is Illuminated

Today's Extremes

Country Highs Country Lows

Community

WunderPhotos

Upload Photos

1,927,957 photos uploaded!

WunderBlog® & News

Nearby

Air Quality

  Air Quality AQ Index Pollutant
Not available.

Snow Depth

Station Depth Elevation

Earthquake Activity

City Distance Mag. Time & Date
Minimum magnitude displayed is 2.5.

Coastal Water Temperatures

Place Temperature

Stations

Nearby Weather Stations

Station Location Temp. Windchill Dew Point Humidity Wind Precip. Elev Updated Type